Date,TemperatureHighF,TemperatureAvgF,TemperatureLowF,DewpointHighF,DewpointAvgF,DewpointLowF,HumidityHigh,HumidityAvg,HumidityLow,PressureMaxIn,PressureMinIn,WindSpeedMaxMPH,WindSpeedAvgMPH,GustSpeedMaxMPH,PrecipitationSumIn
2013-2-1,43.0,35.9,30.0,36.0,31.6,28.0,94,84,73,28.49,28.23,11,1,16,0.00
2013-2-2,35.0,29.4,26.0,31.0,27.9,25.0,96,94,85,28.52,28.31,1,0,5,0.00
2013-2-3,34.0,30.4,27.0,33.0,29.3,26.0,97,96,93,28.31,28.13,3,0,7,0.00
2013-2-4,41.0,33.7,29.0,37.0,31.9,28.0,97,93,84,28.17,27.98,1,0,3,0.01
2013-2-5,41.0,35.3,33.0,37.0,33.6,31.0,97,94,85,27.99,27.82,2,0,7,0.02
2013-2-6,46.0,37.4,32.0,38.0,34.4,31.0,98,90,72,28.04,27.91,1,0,3,0.01
2013-2-7,50.0,41.3,34.0,37.0,31.1,26.0,96,70,40,28.08,27.87,11,4,21,0.01
2013-2-8,50.0,40.0,29.0,28.0,26.4,23.0,85,60,35,28.19,28.08,15,5,25,0.00
2013-2-9,51.0,41.2,30.0,32.0,29.3,26.0,88,64,48,28.23,28.05,12,4,24,0.00
2013-2-10,52.0,38.7,30.0,33.0,29.8,26.0,86,71,47,28.30,28.18,7,1,15,0.00
2013-2-11,41.0,33.5,27.0,33.0,29.3,25.0,95,85,72,28.27,28.18,5,0,11,0.00
2013-2-12,48.0,37.1,31.0,36.0,32.2,29.0,94,83,63,28.32,28.15,1,0,4,0.00
2013-2-13,54.0,43.6,34.0,38.0,31.0,27.0,91,64,37,28.37,28.14,15,4,24,0.00
2013-2-14,51.0,42.0,36.0,34.0,30.4,28.0,81,64,50,28.53,28.38,7,1,13,0.00
2013-2-15,51.0,38.3,30.0,36.0,31.3,28.0,93,77,55,28.56,28.27,2,0,6,0.00
2013-2-16,54.0,38.8,29.0,39.0,31.8,27.0,96,78,37,28.28,27.96,19,3,32,0.00
2013-2-17,51.0,43.1,35.0,32.0,27.5,23.0,73,55,33,28.12,28.03,12,4,18,0.00
2013-2-18,41.0,35.3,29.0,32.0,28.2,25.0,89,75,65,28.09,27.81,5,1,14,0.00
2013-2-19,48.0,37.9,31.0,31.0,28.9,27.0,89,71,45,27.95,27.75,6,1,12,0.00
2013-2-20,48.0,35.7,25.0,30.0,26.8,22.0,90,71,47,28.03,27.93,5,0,9,0.00
2013-2-21,48.0,36.5,28.0,34.0,29.2,25.0,89,75,51,28.02,27.91,11,1,16,0.00
2013-2-22,44.0,38.4,33.0,39.0,32.6,23.0,91,80,47,27.97,27.60,12,4,25,0.01
2013-2-23,50.0,43.1,37.0,31.0,27.5,25.0,78,55,37,28.26,27.76,18,8,29,0.01
2013-2-24,48.0,40.7,35.0,32.0,28.6,26.0,76,62,50,28.27,28.00,9,2,16,0.00
2013-2-25,51.0,39.9,32.0,36.0,29.3,20.0,94,69,30,28.17,27.87,24,4,34,0.01
2013-2-26,53.0,42.9,35.0,28.0,25.2,23.0,67,50,34,28.29,28.17,13,2,20,0.01
2013-2-27,55.0,41.3,30.0,34.0,29.8,25.0,85,65,43,28.28,28.17,4,0,7,0.00
2013-2-28,43.0,39.9,38.0,40.0,36.2,31.0,94,87,67,28.33,28.22,7,1,12,0.27